sensor_id;sensor_type;location;lat;lon;timestamp;P1;durP1;ratioP1;P2;durP2;ratioP2
56255;SDS011;57229;51.432;-2.598;2023-02-15T00:02:15;21.75;;;14.05;;
56255;SDS011;57229;51.432;-2.598;2023-02-15T00:04:44;19.33;;;13.57;;
56255;SDS011;57229;51.432;-2.598;2023-02-15T00:07:16;21.75;;;13.60;;
56255;SDS011;57229;51.432;-2.598;2023-02-15T00:09:44;20.15;;;13.90;;
56255;SDS011;57229;51.432;-2.598;2023-02-15T00:12:14;20.65;;;14.45;;
56255;SDS011;57229;51.432;-2.598;2023-02-15T00:17:46;21.15;;;13.93;;
56255;SDS011;57229;51.432;-2.598;2023-02-15T00:20:12;25.02;;;14.88;;
56255;SDS011;57229;51.432;-2.598;2023-02-15T00:22:37;19.27;;;13.82;;
56255;SDS011;57229;51.432;-2.598;2023-02-15T00:25:03;21.45;;;13.60;;
56255;SDS011;57229;51.432;-2.598;2023-02-15T00:27:29;21.23;;;13.70;;
56255;SDS011;57229;51.432;-2.598;2023-02-15T00:29:55;19.17;;;13.55;;
56255;SDS011;57229;51.432;-2.598;2023-02-15T00:32:20;21.33;;;13.50;;
56255;SDS011;57229;51.432;-2.598;2023-02-15T00:34:46;20.33;;;13.70;;
56255;SDS011;57229;51.432;-2.598;2023-02-15T00:37:12;18.02;;;12.73;;
56255;SDS011;57229;51.432;-2.598;2023-02-15T00:39:40;21.05;;;14.00;;
56255;SDS011;57229;51.432;-2.598;2023-02-15T00:42:09;19.15;;;13.35;;
56255;SDS011;57229;51.432;-2.598;2023-02-15T00:44:35;20.77;;;14.25;;
56255;SDS011;57229;51.432;-2.598;2023-02-15T00:47:03;21.58;;;13.50;;
56255;SDS011;57229;51.432;-2.598;2023-02-15T00:49:30;17.40;;;12.80;;
56255;SDS011;57229;51.432;-2.598;2023-02-15T00:51:55;20.85;;;13.60;;
56255;SDS011;57229;51.432;-2.598;2023-02-15T00:54:21;19.67;;;13.43;;
56255;SDS011;57229;51.432;-2.598;2023-02-15T00:56:47;19.73;;;13.52;;
56255;SDS011;57229;51.432;-2.598;2023-02-15T00:59:12;17.65;;;12.77;;
56255;SDS011;57229;51.432;-2.598;2023-02-15T01:01:40;21.02;;;14.05;;
56255;SDS011;57229;51.432;-2.598;2023-02-15T01:04:06;20.52;;;13.80;;
56255;SDS011;57229;51.432;-2.598;2023-02-15T01:06:32;22.17;;;14.52;;
56255;SDS011;57229;51.432;-2.598;2023-02-15T01:08:58;21.13;;;13.60;;
56255;SDS011;57229;51.432;-2.598;2023-02-15T01:11:24;23.42;;;14.68;;
56255;SDS011;57229;51.432;-2.598;2023-02-15T01:13:50;21.17;;;14.30;;
56255;SDS011;57229;51.432;-2.598;2023-02-15T01:16:17;20.45;;;13.85;;
56255;SDS011;57229;51.432;-2.598;2023-02-15T01:18:43;22.95;;;14.23;;
56255;SDS011;57229;51.432;-2.598;2023-02-15T01:21:22;21.90;;;14.27;;
56255;SDS011;57229;51.432;-2.598;2023-02-15T01:23:52;21.52;;;14.35;;
56255;SDS011;57229;51.432;-2.598;2023-02-15T01:26:18;20.85;;;13.93;;
56255;SDS011;57229;51.432;-2.598;2023-02-15T01:28:44;22.50;;;14.68;;
56255;SDS011;57229;51.432;-2.598;2023-02-15T01:31:11;20.20;;;14.35;;
56255;SDS011;57229;51.432;-2.598;2023-02-15T01:33:40;21.75;;;13.90;;
56255;SDS011;57229;51.432;-2.598;2023-02-15T01:36:06;19.88;;;12.68;;
56255;SDS011;57229;51.432;-2.598;2023-02-15T01:38:32;22.00;;;14.07;;
56255;SDS011;57229;51.432;-2.598;2023-02-15T01:40:59;23.00;;;14.25;;
56255;SDS011;57229;51.432;-2.598;2023-02-15T01:43:47;24.20;;;14.80;;
56255;SDS011;57229;51.432;-2.598;2023-02-15T01:46:15;28.45;;;14.93;;
56255;SDS011;57229;51.432;-2.598;2023-02-15T01:48:47;26.05;;;15.07;;
56255;SDS011;57229;51.432;-2.598;2023-02-15T01:51:19;20.73;;;14.23;;
56255;SDS011;57229;51.432;-2.598;2023-02-15T01:53:52;22.95;;;14.57;;
56255;SDS011;57229;51.432;-2.598;2023-02-15T01:56:33;22.83;;;14.25;;
56255;SDS011;57229;51.432;-2.598;2023-02-15T01:59:15;23.45;;;14.93;;
56255;SDS011;57229;51.432;-2.598;2023-02-15T02:01:44;23.27;;;14.77;;
56255;SDS011;57229;51.432;-2.598;2023-02-15T02:07:03;22.58;;;14.57;;
56255;SDS011;57229;51.432;-2.598;2023-02-15T02:09:30;22.48;;;15.30;;
56255;SDS011;57229;51.432;-2.598;2023-02-15T02:11:56;25.13;;;15.73;;
56255;SDS011;57229;51.432;-2.598;2023-02-15T02:14:22;25.05;;;14.73;;
56255;SDS011;57229;51.432;-2.598;2023-02-15T02:25:21;21.98;;;14.23;;
56255;SDS011;57229;51.432;-2.598;2023-02-15T02:33:42;22.58;;;14.48;;
56255;SDS011;57229;51.432;-2.598;2023-02-15T02:36:15;23.15;;;14.57;;
56255;SDS011;57229;51.432;-2.598;2023-02-15T02:39:12;24.95;;;15.30;;
56255;SDS011;57229;51.432;-2.598;2023-02-15T02:42:04;24.05;;;15.25;;
56255;SDS011;57229;51.432;-2.598;2023-02-15T02:47:35;23.73;;;15.20;;
56255;SDS011;57229;51.432;-2.598;2023-02-15T02:50:16;25.08;;;16.48;;
56255;SDS011;57229;51.432;-2.598;2023-02-15T02:52:49;24.27;;;15.60;;
56255;SDS011;57229;51.432;-2.598;2023-02-15T02:55:53;27.95;;;16.15;;
56255;SDS011;57229;51.432;-2.598;2023-02-15T02:58:48;24.42;;;15.13;;
56255;SDS011;57229;51.432;-2.598;2023-02-15T03:02:04;25.48;;;15.88;;
56255;SDS011;57229;51.432;-2.598;2023-02-15T03:04:20;23.38;;;15.48;;
56255;SDS011;57229;51.432;-2.598;2023-02-15T03:12:43;24.92;;;15.70;;
56255;SDS011;57229;51.432;-2.598;2023-02-15T03:15:14;26.85;;;16.35;;
56255;SDS011;57229;51.432;-2.598;2023-02-15T03:17:46;25.42;;;15.80;;
56255;SDS011;57229;51.432;-2.598;2023-02-15T03:20:18;25.92;;;15.77;;
56255;SDS011;57229;51.432;-2.598;2023-02-15T03:23:00;25.98;;;16.92;;
56255;SDS011;57229;51.432;-2.598;2023-02-15T03:25:41;26.30;;;17.02;;
56255;SDS011;57229;51.432;-2.598;2023-02-15T03:28:15;27.75;;;16.20;;
56255;SDS011;57229;51.432;-2.598;2023-02-15T03:30:48;29.20;;;17.50;;
56255;SDS011;57229;51.432;-2.598;2023-02-15T03:33:21;31.73;;;17.42;;
56255;SDS011;57229;51.432;-2.598;2023-02-15T03:36:36;27.10;;;16.75;;
56255;SDS011;57229;51.432;-2.598;2023-02-15T03:41:57;26.15;;;16.85;;
56255;SDS011;57229;51.432;-2.598;2023-02-15T03:44:33;27.50;;;16.45;;
56255;SDS011;57229;51.432;-2.598;2023-02-15T03:47:19;27.25;;;17.33;;
56255;SDS011;57229;51.432;-2.598;2023-02-15T03:52:55;27.70;;;16.73;;
56255;SDS011;57229;51.432;-2.598;2023-02-15T03:55:24;28.88;;;17.90;;
56255;SDS011;57229;51.432;-2.598;2023-02-15T03:57:50;26.05;;;16.67;;
56255;SDS011;57229;51.432;-2.598;2023-02-15T04:00:35;29.00;;;17.63;;
56255;SDS011;57229;51.432;-2.598;2023-02-15T04:06:04;30.10;;;16.88;;
56255;SDS011;57229;51.432;-2.598;2023-02-15T04:08:30;25.65;;;16.58;;
56255;SDS011;57229;51.432;-2.598;2023-02-15T04:11:14;28.35;;;17.60;;
56255;SDS011;57229;51.432;-2.598;2023-02-15T04:13:40;29.77;;;17.80;;
56255;SDS011;57229;51.432;-2.598;2023-02-15T04:16:06;24.88;;;16.85;;
56255;SDS011;57229;51.432;-2.598;2023-02-15T04:18:32;28.20;;;17.95;;
56255;SDS011;57229;51.432;-2.598;2023-02-15T04:21:21;29.17;;;17.92;;
56255;SDS011;57229;51.432;-2.598;2023-02-15T04:24:07;29.20;;;17.45;;
56255;SDS011;57229;51.432;-2.598;2023-02-15T04:26:54;27.00;;;16.92;;
56255;SDS011;57229;51.432;-2.598;2023-02-15T04:29:24;27.75;;;17.60;;
56255;SDS011;57229;51.432;-2.598;2023-02-15T04:31:51;28.77;;;17.50;;
56255;SDS011;57229;51.432;-2.598;2023-02-15T04:34:18;28.15;;;17.45;;
56255;SDS011;57229;51.432;-2.598;2023-02-15T04:36:47;27.42;;;17.13;;
56255;SDS011;57229;51.432;-2.598;2023-02-15T04:39:13;28.00;;;17.38;;
56255;SDS011;57229;51.432;-2.598;2023-02-15T04:41:40;30.02;;;17.75;;
56255;SDS011;57229;51.432;-2.598;2023-02-15T04:44:06;28.88;;;17.45;;
56255;SDS011;57229;51.432;-2.598;2023-02-15T04:46:32;29.23;;;18.00;;
56255;SDS011;57229;51.432;-2.598;2023-02-15T04:48:57;28.40;;;17.88;;
56255;SDS011;57229;51.432;-2.598;2023-02-15T04:51:23;29.67;;;17.50;;
56255;SDS011;57229;51.432;-2.598;2023-02-15T04:53:52;31.17;;;17.63;;
56255;SDS011;57229;51.432;-2.598;2023-02-15T04:56:18;29.67;;;17.13;;
56255;SDS011;57229;51.432;-2.598;2023-02-15T04:58:58;29.70;;;18.08;;
56255;SDS011;57229;51.432;-2.598;2023-02-15T05:01:23;29.63;;;18.38;;
56255;SDS011;57229;51.432;-2.598;2023-02-15T05:04:01;29.20;;;17.80;;
56255;SDS011;57229;51.432;-2.598;2023-02-15T05:06:30;30.23;;;18.08;;
56255;SDS011;57229;51.432;-2.598;2023-02-15T05:08:56;27.15;;;17.13;;
56255;SDS011;57229;51.432;-2.598;2023-02-15T05:11:24;26.98;;;17.50;;
56255;SDS011;57229;51.432;-2.598;2023-02-15T05:13:52;30.42;;;18.13;;
56255;SDS011;57229;51.432;-2.598;2023-02-15T05:16:18;29.55;;;18.25;;
56255;SDS011;57229;51.432;-2.598;2023-02-15T05:18:44;28.45;;;17.50;;
56255;SDS011;57229;51.432;-2.598;2023-02-15T05:21:09;29.73;;;18.25;;
56255;SDS011;57229;51.432;-2.598;2023-02-15T05:23:35;28.23;;;18.02;;
56255;SDS011;57229;51.432;-2.598;2023-02-15T05:26:01;27.50;;;17.40;;
56255;SDS011;57229;51.432;-2.598;2023-02-15T05:28:45;29.55;;;17.52;;
56255;SDS011;57229;51.432;-2.598;2023-02-15T05:31:12;29.38;;;17.52;;
56255;SDS011;57229;51.432;-2.598;2023-02-15T05:33:40;29.15;;;17.77;;
56255;SDS011;57229;51.432;-2.598;2023-02-15T05:36:06;27.83;;;17.10;;
56255;SDS011;57229;51.432;-2.598;2023-02-15T05:38:32;28.33;;;17.98;;
56255;SDS011;57229;51.432;-2.598;2023-02-15T05:40:58;29.55;;;18.15;;
56255;SDS011;57229;51.432;-2.598;2023-02-15T05:43:24;28.60;;;18.55;;
56255;SDS011;57229;51.432;-2.598;2023-02-15T05:45:52;31.45;;;18.27;;
56255;SDS011;57229;51.432;-2.598;2023-02-15T05:48:19;29.85;;;18.33;;
56255;SDS011;57229;51.432;-2.598;2023-02-15T05:50:46;29.38;;;17.67;;
56255;SDS011;57229;51.432;-2.598;2023-02-15T05:53:21;29.85;;;18.88;;
56255;SDS011;57229;51.432;-2.598;2023-02-15T05:55:46;30.98;;;18.95;;
56255;SDS011;57229;51.432;-2.598;2023-02-15T05:58:12;30.25;;;18.75;;
56255;SDS011;57229;51.432;-2.598;2023-02-15T06:00:44;32.72;;;18.90;;
56255;SDS011;57229;51.432;-2.598;2023-02-15T06:03:13;31.67;;;18.65;;
56255;SDS011;57229;51.432;-2.598;2023-02-15T06:05:38;31.88;;;17.85;;
56255;SDS011;57229;51.432;-2.598;2023-02-15T06:08:04;31.45;;;18.45;;
56255;SDS011;57229;51.432;-2.598;2023-02-15T06:10:30;29.73;;;18.00;;
56255;SDS011;57229;51.432;-2.598;2023-02-15T06:12:56;32.30;;;19.40;;
56255;SDS011;57229;51.432;-2.598;2023-02-15T06:15:21;26.75;;;17.25;;
56255;SDS011;57229;51.432;-2.598;2023-02-15T06:17:47;29.38;;;17.90;;
56255;SDS011;57229;51.432;-2.598;2023-02-15T06:20:13;29.77;;;18.60;;
56255;SDS011;57229;51.432;-2.598;2023-02-15T06:22:38;29.92;;;19.10;;
56255;SDS011;57229;51.432;-2.598;2023-02-15T06:25:04;29.40;;;18.70;;
56255;SDS011;57229;51.432;-2.598;2023-02-15T06:27:37;33.53;;;18.50;;
56255;SDS011;57229;51.432;-2.598;2023-02-15T06:30:05;31.98;;;18.55;;
56255;SDS011;57229;51.432;-2.598;2023-02-15T06:32:32;30.17;;;19.50;;
56255;SDS011;57229;51.432;-2.598;2023-02-15T06:34:59;30.25;;;18.45;;
56255;SDS011;57229;51.432;-2.598;2023-02-15T06:37:24;30.35;;;18.55;;
56255;SDS011;57229;51.432;-2.598;2023-02-15T06:39:50;31.38;;;18.15;;
56255;SDS011;57229;51.432;-2.598;2023-02-15T06:42:16;31.30;;;18.90;;
56255;SDS011;57229;51.432;-2.598;2023-02-15T06:44:43;30.58;;;18.38;;
56255;SDS011;57229;51.432;-2.598;2023-02-15T06:47:09;31.60;;;18.67;;
56255;SDS011;57229;51.432;-2.598;2023-02-15T06:49:35;30.52;;;18.13;;
56255;SDS011;57229;51.432;-2.598;2023-02-15T06:52:02;31.10;;;19.10;;
56255;SDS011;57229;51.432;-2.598;2023-02-15T06:54:28;29.98;;;18.95;;
56255;SDS011;57229;51.432;-2.598;2023-02-15T06:56:53;30.77;;;18.52;;
56255;SDS011;57229;51.432;-2.598;2023-02-15T06:59:19;30.08;;;18.33;;
56255;SDS011;57229;51.432;-2.598;2023-02-15T07:01:45;30.70;;;19.10;;
56255;SDS011;57229;51.432;-2.598;2023-02-15T07:04:10;31.83;;;18.92;;
56255;SDS011;57229;51.432;-2.598;2023-02-15T07:06:36;34.15;;;19.10;;
56255;SDS011;57229;51.432;-2.598;2023-02-15T07:09:02;31.33;;;19.55;;
56255;SDS011;57229;51.432;-2.598;2023-02-15T07:11:30;33.72;;;19.48;;
56255;SDS011;57229;51.432;-2.598;2023-02-15T07:14:14;29.42;;;18.75;;
56255;SDS011;57229;51.432;-2.598;2023-02-15T07:16:40;30.65;;;18.35;;
56255;SDS011;57229;51.432;-2.598;2023-02-15T07:19:05;31.92;;;20.00;;
56255;SDS011;57229;51.432;-2.598;2023-02-15T07:21:32;32.92;;;18.55;;
56255;SDS011;57229;51.432;-2.598;2023-02-15T07:23:58;30.38;;;18.60;;
56255;SDS011;57229;51.432;-2.598;2023-02-15T07:26:24;31.80;;;18.27;;
56255;SDS011;57229;51.432;-2.598;2023-02-15T07:28:50;31.05;;;18.58;;
56255;SDS011;57229;51.432;-2.598;2023-02-15T07:31:16;32.42;;;19.25;;
56255;SDS011;57229;51.432;-2.598;2023-02-15T07:33:41;28.75;;;17.75;;
56255;SDS011;57229;51.432;-2.598;2023-02-15T07:36:07;30.70;;;18.58;;
56255;SDS011;57229;51.432;-2.598;2023-02-15T07:38:37;30.17;;;18.92;;
56255;SDS011;57229;51.432;-2.598;2023-02-15T07:41:07;30.33;;;18.83;;
56255;SDS011;57229;51.432;-2.598;2023-02-15T07:43:37;29.92;;;18.42;;
56255;SDS011;57229;51.432;-2.598;2023-02-15T07:46:05;29.92;;;18.98;;
56255;SDS011;57229;51.432;-2.598;2023-02-15T07:48:33;31.30;;;18.67;;
56255;SDS011;57229;51.432;-2.598;2023-02-15T07:50:59;31.35;;;19.15;;
56255;SDS011;57229;51.432;-2.598;2023-02-15T07:53:26;28.75;;;17.75;;
56255;SDS011;57229;51.432;-2.598;2023-02-15T07:55:52;30.67;;;18.98;;
56255;SDS011;57229;51.432;-2.598;2023-02-15T07:58:21;31.30;;;18.00;;
56255;SDS011;57229;51.432;-2.598;2023-02-15T08:01:06;32.55;;;19.17;;
56255;SDS011;57229;51.432;-2.598;2023-02-15T08:03:32;30.90;;;18.10;;
56255;SDS011;57229;51.432;-2.598;2023-02-15T08:05:58;28.13;;;17.25;;
56255;SDS011;57229;51.432;-2.598;2023-02-15T08:08:27;31.55;;;18.90;;
56255;SDS011;57229;51.432;-2.598;2023-02-15T08:14:04;31.58;;;18.92;;
56255;SDS011;57229;51.432;-2.598;2023-02-15T08:19:08;31.10;;;17.48;;
56255;SDS011;57229;51.432;-2.598;2023-02-15T08:21:45;29.98;;;18.10;;
56255;SDS011;57229;51.432;-2.598;2023-02-15T08:24:12;30.65;;;18.58;;
56255;SDS011;57229;51.432;-2.598;2023-02-15T08:26:39;31.13;;;17.63;;
56255;SDS011;57229;51.432;-2.598;2023-02-15T08:29:06;33.00;;;18.63;;
56255;SDS011;57229;51.432;-2.598;2023-02-15T08:31:33;32.45;;;18.52;;
56255;SDS011;57229;51.432;-2.598;2023-02-15T08:34:00;31.85;;;17.50;;
56255;SDS011;57229;51.432;-2.598;2023-02-15T08:36:27;35.38;;;18.05;;
56255;SDS011;57229;51.432;-2.598;2023-02-15T08:38:54;33.33;;;18.52;;
56255;SDS011;57229;51.432;-2.598;2023-02-15T08:41:23;27.95;;;16.92;;
56255;SDS011;57229;51.432;-2.598;2023-02-15T08:43:52;30.50;;;18.17;;
56255;SDS011;57229;51.432;-2.598;2023-02-15T08:46:19;30.95;;;17.65;;
56255;SDS011;57229;51.432;-2.598;2023-02-15T08:48:46;41.63;;;18.52;;
56255;SDS011;57229;51.432;-2.598;2023-02-15T08:51:16;40.67;;;18.67;;
56255;SDS011;57229;51.432;-2.598;2023-02-15T08:53:45;37.00;;;17.73;;
56255;SDS011;57229;51.432;-2.598;2023-02-15T08:56:15;33.95;;;17.33;;
56255;SDS011;57229;51.432;-2.598;2023-02-15T08:58:42;34.10;;;17.60;;
56255;SDS011;57229;51.432;-2.598;2023-02-15T09:01:09;31.55;;;16.98;;
56255;SDS011;57229;51.432;-2.598;2023-02-15T09:03:36;30.88;;;17.63;;
56255;SDS011;57229;51.432;-2.598;2023-02-15T09:06:03;34.72;;;18.27;;
56255;SDS011;57229;51.432;-2.598;2023-02-15T09:08:29;34.70;;;17.23;;
56255;SDS011;57229;51.432;-2.598;2023-02-15T09:11:03;29.60;;;17.02;;
56255;SDS011;57229;51.432;-2.598;2023-02-15T09:13:30;27.02;;;16.63;;
56255;SDS011;57229;51.432;-2.598;2023-02-15T09:16:03;31.00;;;16.13;;
56255;SDS011;57229;51.432;-2.598;2023-02-15T09:18:31;29.05;;;16.63;;
56255;SDS011;57229;51.432;-2.598;2023-02-15T09:21:11;27.80;;;17.00;;
56255;SDS011;57229;51.432;-2.598;2023-02-15T09:23:41;29.30;;;16.30;;
56255;SDS011;57229;51.432;-2.598;2023-02-15T09:26:12;28.58;;;16.60;;
56255;SDS011;57229;51.432;-2.598;2023-02-15T09:28:39;26.33;;;15.85;;
56255;SDS011;57229;51.432;-2.598;2023-02-15T09:31:12;29.40;;;16.67;;
56255;SDS011;57229;51.432;-2.598;2023-02-15T09:33:42;27.13;;;16.23;;
56255;SDS011;57229;51.432;-2.598;2023-02-15T09:36:14;24.98;;;16.20;;
56255;SDS011;57229;51.432;-2.598;2023-02-15T09:38:51;27.02;;;15.63;;
56255;SDS011;57229;51.432;-2.598;2023-02-15T09:56:19;26.52;;;15.32;;
56255;SDS011;57229;51.432;-2.598;2023-02-15T11:23:18;20.60;;;11.90;;
56255;SDS011;57229;51.432;-2.598;2023-02-15T11:25:47;20.73;;;10.85;;
56255;SDS011;57229;51.432;-2.598;2023-02-15T11:28:37;16.23;;;11.15;;
56255;SDS011;57229;51.432;-2.598;2023-02-15T11:31:18;19.08;;;11.85;;
56255;SDS011;57229;51.432;-2.598;2023-02-15T11:34:06;15.45;;;10.85;;
56255;SDS011;57229;51.432;-2.598;2023-02-15T11:39:57;16.45;;;10.60;;
56255;SDS011;57229;51.432;-2.598;2023-02-15T11:42:28;15.05;;;10.27;;
56255;SDS011;57229;51.432;-2.598;2023-02-15T11:45:20;19.13;;;10.65;;
56255;SDS011;57229;51.432;-2.598;2023-02-15T11:47:53;18.98;;;10.85;;
56255;SDS011;57229;51.432;-2.598;2023-02-15T11:50:36;18.52;;;10.98;;
56255;SDS011;57229;51.432;-2.598;2023-02-15T11:56:33;14.82;;;10.07;;
56255;SDS011;57229;51.432;-2.598;2023-02-15T11:59:34;15.32;;;9.98;;
56255;SDS011;57229;51.432;-2.598;2023-02-15T12:02:01;17.77;;;9.60;;
56255;SDS011;57229;51.432;-2.598;2023-02-15T12:04:30;14.85;;;9.70;;
56255;SDS011;57229;51.432;-2.598;2023-02-15T12:12:29;17.17;;;10.10;;
56255;SDS011;57229;51.432;-2.598;2023-02-15T12:14:57;14.00;;;9.48;;
56255;SDS011;57229;51.432;-2.598;2023-02-15T12:17:29;15.90;;;8.98;;
56255;SDS011;57229;51.432;-2.598;2023-02-15T12:22:51;12.07;;;8.55;;
56255;SDS011;57229;51.432;-2.598;2023-02-15T12:25:25;13.55;;;8.75;;
56255;SDS011;57229;51.432;-2.598;2023-02-15T12:28:24;12.23;;;8.38;;
56255;SDS011;57229;51.432;-2.598;2023-02-15T12:31:32;11.23;;;8.07;;
56255;SDS011;57229;51.432;-2.598;2023-02-15T12:35:01;11.68;;;7.80;;
56255;SDS011;57229;51.432;-2.598;2023-02-15T12:37:35;12.85;;;8.55;;
56255;SDS011;57229;51.432;-2.598;2023-02-15T12:40:10;11.98;;;7.82;;
56255;SDS011;57229;51.432;-2.598;2023-02-15T12:42:45;14.77;;;8.18;;
56255;SDS011;57229;51.432;-2.598;2023-02-15T12:45:25;18.65;;;8.25;;
56255;SDS011;57229;51.432;-2.598;2023-02-15T12:50:53;10.48;;;7.00;;
56255;SDS011;57229;51.432;-2.598;2023-02-15T12:53:36;10.95;;;7.72;;
56255;SDS011;57229;51.432;-2.598;2023-02-15T12:56:04;13.70;;;7.53;;
56255;SDS011;57229;51.432;-2.598;2023-02-15T12:58:38;13.85;;;7.60;;
56255;SDS011;57229;51.432;-2.598;2023-02-15T13:03:55;10.63;;;6.93;;
56255;SDS011;57229;51.432;-2.598;2023-02-15T13:06:25;13.38;;;7.65;;
56255;SDS011;57229;51.432;-2.598;2023-02-15T13:11:54;12.52;;;8.02;;
56255;SDS011;57229;51.432;-2.598;2023-02-15T13:14:22;13.70;;;7.28;;
56255;SDS011;57229;51.432;-2.598;2023-02-15T13:16:58;16.33;;;8.13;;
56255;SDS011;57229;51.432;-2.598;2023-02-15T13:19:37;14.82;;;7.95;;
56255;SDS011;57229;51.432;-2.598;2023-02-15T13:22:17;14.38;;;8.48;;
56255;SDS011;57229;51.432;-2.598;2023-02-15T13:25:10;13.65;;;7.28;;
56255;SDS011;57229;51.432;-2.598;2023-02-15T13:27:41;11.27;;;6.88;;
56255;SDS011;57229;51.432;-2.598;2023-02-15T13:30:20;12.65;;;7.68;;
56255;SDS011;57229;51.432;-2.598;2023-02-15T13:33:06;16.13;;;8.05;;
56255;SDS011;57229;51.432;-2.598;2023-02-15T13:36:26;11.90;;;7.20;;
56255;SDS011;57229;51.432;-2.598;2023-02-15T13:41:51;12.68;;;6.97;;
56255;SDS011;57229;51.432;-2.598;2023-02-15T13:47:17;11.05;;;7.47;;
56255;SDS011;57229;51.432;-2.598;2023-02-15T13:53:06;11.23;;;6.88;;
56255;SDS011;57229;51.432;-2.598;2023-02-15T14:25:45;13.48;;;7.53;;
56255;SDS011;57229;51.432;-2.598;2023-02-15T14:28:19;13.15;;;6.80;;
56255;SDS011;57229;51.432;-2.598;2023-02-15T14:30:55;10.52;;;7.18;;
56255;SDS011;57229;51.432;-2.598;2023-02-15T14:33:29;12.80;;;6.95;;
56255;SDS011;57229;51.432;-2.598;2023-02-15T14:36:06;13.98;;;7.88;;
56255;SDS011;57229;51.432;-2.598;2023-02-15T14:56:20;16.83;;;8.45;;
56255;SDS011;57229;51.432;-2.598;2023-02-15T15:04:10;16.75;;;8.60;;
56255;SDS011;57229;51.432;-2.598;2023-02-15T15:06:41;13.40;;;7.57;;
56255;SDS011;57229;51.432;-2.598;2023-02-15T15:14:52;15.23;;;8.27;;
56255;SDS011;57229;51.432;-2.598;2023-02-15T15:17:53;13.73;;;8.23;;
56255;SDS011;57229;51.432;-2.598;2023-02-15T15:20:38;10.20;;;7.22;;
56255;SDS011;57229;51.432;-2.598;2023-02-15T15:55:34;12.32;;;7.03;;
56255;SDS011;57229;51.432;-2.598;2023-02-15T15:58:02;14.07;;;7.28;;
56255;SDS011;57229;51.432;-2.598;2023-02-15T16:03:22;10.38;;;6.47;;
56255;SDS011;57229;51.432;-2.598;2023-02-15T16:05:50;11.77;;;6.75;;
56255;SDS011;57229;51.432;-2.598;2023-02-15T16:08:27;11.18;;;6.20;;
56255;SDS011;57229;51.432;-2.598;2023-02-15T16:11:12;9.48;;;6.15;;
56255;SDS011;57229;51.432;-2.598;2023-02-15T16:13:42;8.27;;;5.85;;
56255;SDS011;57229;51.432;-2.598;2023-02-15T16:16:08;9.48;;;5.70;;
56255;SDS011;57229;51.432;-2.598;2023-02-15T16:18:38;9.98;;;6.00;;
56255;SDS011;57229;51.432;-2.598;2023-02-15T16:21:12;10.32;;;5.18;;
56255;SDS011;57229;51.432;-2.598;2023-02-15T16:29:18;12.68;;;5.60;;
56255;SDS011;57229;51.432;-2.598;2023-02-15T16:32:02;12.65;;;5.28;;
56255;SDS011;57229;51.432;-2.598;2023-02-15T16:34:28;10.48;;;5.20;;
56255;SDS011;57229;51.432;-2.598;2023-02-15T16:37:19;9.23;;;4.90;;
56255;SDS011;57229;51.432;-2.598;2023-02-15T16:39:48;6.78;;;4.80;;
56255;SDS011;57229;51.432;-2.598;2023-02-15T16:42:15;8.73;;;4.60;;
56255;SDS011;57229;51.432;-2.598;2023-02-15T16:44:42;8.50;;;5.05;;
56255;SDS011;57229;51.432;-2.598;2023-02-15T16:47:16;9.43;;;5.30;;
56255;SDS011;57229;51.432;-2.598;2023-02-15T16:50:04;10.50;;;5.40;;
56255;SDS011;57229;51.432;-2.598;2023-02-15T16:52:31;10.77;;;5.25;;
56255;SDS011;57229;51.432;-2.598;2023-02-15T16:55:01;9.25;;;5.53;;
56255;SDS011;57229;51.432;-2.598;2023-02-15T16:57:33;13.25;;;5.38;;
56255;SDS011;57229;51.432;-2.598;2023-02-15T17:00:03;7.57;;;5.78;;
56255;SDS011;57229;51.432;-2.598;2023-02-15T17:02:31;11.80;;;5.93;;
56255;SDS011;57229;51.432;-2.598;2023-02-15T17:05:13;13.52;;;6.18;;
56255;SDS011;57229;51.432;-2.598;2023-02-15T17:07:48;10.98;;;5.85;;
56255;SDS011;57229;51.432;-2.598;2023-02-15T17:13:10;9.50;;;5.35;;
56255;SDS011;57229;51.432;-2.598;2023-02-15T17:15:44;9.93;;;5.63;;
56255;SDS011;57229;51.432;-2.598;2023-02-15T17:18:30;9.05;;;5.20;;
56255;SDS011;57229;51.432;-2.598;2023-02-15T17:21:16;13.70;;;5.95;;
56255;SDS011;57229;51.432;-2.598;2023-02-15T17:23:50;9.20;;;5.25;;
56255;SDS011;57229;51.432;-2.598;2023-02-15T17:26:25;11.10;;;5.35;;
56255;SDS011;57229;51.432;-2.598;2023-02-15T17:29:20;8.15;;;5.05;;
56255;SDS011;57229;51.432;-2.598;2023-02-15T17:31:56;9.50;;;4.68;;
56255;SDS011;57229;51.432;-2.598;2023-02-15T17:37:12;7.90;;;4.72;;
56255;SDS011;57229;51.432;-2.598;2023-02-15T17:39:47;7.88;;;5.10;;
56255;SDS011;57229;51.432;-2.598;2023-02-15T17:42:13;11.50;;;5.35;;
56255;SDS011;57229;51.432;-2.598;2023-02-15T17:44:41;6.18;;;4.45;;
56255;SDS011;57229;51.432;-2.598;2023-02-15T17:47:09;7.30;;;4.43;;
56255;SDS011;57229;51.432;-2.598;2023-02-15T17:49:40;7.38;;;4.30;;
56255;SDS011;57229;51.432;-2.598;2023-02-15T17:52:08;7.82;;;4.47;;
56255;SDS011;57229;51.432;-2.598;2023-02-15T17:54:41;10.47;;;4.73;;
56255;SDS011;57229;51.432;-2.598;2023-02-15T17:57:25;9.55;;;4.78;;
56255;SDS011;57229;51.432;-2.598;2023-02-15T17:59:52;7.82;;;4.45;;
56255;SDS011;57229;51.432;-2.598;2023-02-15T18:02:37;11.27;;;4.70;;
56255;SDS011;57229;51.432;-2.598;2023-02-15T18:05:21;5.13;;;3.90;;
56255;SDS011;57229;51.432;-2.598;2023-02-15T18:08:13;6.25;;;4.05;;
56255;SDS011;57229;51.432;-2.598;2023-02-15T18:14:05;8.35;;;3.70;;
56255;SDS011;57229;51.432;-2.598;2023-02-15T18:16:37;6.22;;;3.88;;
56255;SDS011;57229;51.432;-2.598;2023-02-15T18:19:25;6.32;;;3.90;;
56255;SDS011;57229;51.432;-2.598;2023-02-15T18:21:51;6.30;;;4.03;;
56255;SDS011;57229;51.432;-2.598;2023-02-15T18:24:23;4.93;;;3.60;;
56255;SDS011;57229;51.432;-2.598;2023-02-15T18:26:51;6.22;;;3.83;;
56255;SDS011;57229;51.432;-2.598;2023-02-15T18:29:18;5.32;;;4.03;;
56255;SDS011;57229;51.432;-2.598;2023-02-15T18:31:44;6.60;;;4.15;;
56255;SDS011;57229;51.432;-2.598;2023-02-15T18:34:18;5.57;;;3.75;;
56255;SDS011;57229;51.432;-2.598;2023-02-15T18:36:45;6.07;;;3.75;;
56255;SDS011;57229;51.432;-2.598;2023-02-15T18:39:22;6.20;;;4.25;;
56255;SDS011;57229;51.432;-2.598;2023-02-15T18:41:51;8.50;;;4.10;;
56255;SDS011;57229;51.432;-2.598;2023-02-15T18:44:20;8.13;;;4.50;;
56255;SDS011;57229;51.432;-2.598;2023-02-15T18:46:46;6.85;;;4.50;;
56255;SDS011;57229;51.432;-2.598;2023-02-15T18:49:11;11.25;;;5.60;;
56255;SDS011;57229;51.432;-2.598;2023-02-15T18:51:37;10.48;;;6.15;;
56255;SDS011;57229;51.432;-2.598;2023-02-15T18:54:27;14.02;;;6.65;;
56255;SDS011;57229;51.432;-2.598;2023-02-15T18:56:56;16.23;;;7.78;;
56255;SDS011;57229;51.432;-2.598;2023-02-15T18:59:25;19.40;;;8.52;;
56255;SDS011;57229;51.432;-2.598;2023-02-15T19:01:51;24.02;;;9.20;;
56255;SDS011;57229;51.432;-2.598;2023-02-15T19:04:18;19.33;;;9.98;;
56255;SDS011;57229;51.432;-2.598;2023-02-15T19:06:47;22.35;;;10.20;;
56255;SDS011;57229;51.432;-2.598;2023-02-15T19:09:20;20.48;;;10.48;;
56255;SDS011;57229;51.432;-2.598;2023-02-15T19:11:51;24.75;;;11.38;;
56255;SDS011;57229;51.432;-2.598;2023-02-15T19:14:23;21.13;;;10.63;;
56255;SDS011;57229;51.432;-2.598;2023-02-15T19:16:53;27.20;;;12.48;;
56255;SDS011;57229;51.432;-2.598;2023-02-15T19:19:19;26.63;;;12.18;;
56255;SDS011;57229;51.432;-2.598;2023-02-15T19:21:45;24.88;;;12.02;;
56255;SDS011;57229;51.432;-2.598;2023-02-15T19:24:13;25.63;;;12.48;;
56255;SDS011;57229;51.432;-2.598;2023-02-15T19:26:42;25.95;;;13.30;;